Mid Delta Regional Airport
KGLH : now visible

Airfield :











YOU CAN JOIN US ON...

 
LOGIN :

Register | Disclaimer

   EN    FR    IT 

 









Legend :    VFR   Marginal VFR   IFR   Intensive IFR   Very Intensive IFR
Visi :
Ceiling :
>= 8 km
>= 3000ft
5 to 8 km
1000 to 3000 ft
1500m to 5 km
500 to 1000 ft
800 to 1500m
200 to 500 ft
< 800m
< 200 ft
Symbols :   Thunderstorms  Fog  Heavy snow  Heavy precipitations  Wind > 20 kt







- Airport Elevation : 131 ft
- IATA code : GLH


KGLH - Mid Delta Regional

CURRENT METAR :
  • 181853Z 03006KT 5SM RA BR SCT060 BKN085 OVC110 17/15 A2972 RMK AO2 LTG DSNT SE RAB14 SLP070 P0017 T01670150

EXPIRED METARs :
  • 181843Z 02010KT 3SM RA BR SCT055 BKN070 OVC100 17/15 A2970 RMK AO2 LTG DSNT SE-W RAB14 PRESFR P0015 T01670150
  • 181835Z 04008KT 2 1/2SM RA BR OVC060 17/16 A2972 RMK AO2 LTG DSNT SE-W RAB14 PRESFR P0013 T01720156
  • 181826Z 01004KT 1 3/4SM +RA BR BKN048 OVC060 17/16 A2975 RMK AO2 LTG DSNT SE RAB14 P0010 T01720156
  • 181753Z 03011KT 10SM BKN045 OVC075 18/15 A2972 RMK AO2 RAE21 SLP071 P0001 60040 T01780150 10194 20172 58024
  • 181653Z 36006KT 10SM -RA OVC040 17/16 A2979 RMK AO2 SLP094 P0002 T01720156

TAF KGLH
Valid from the 18 at 18:00 until the 19 at 18:00 UTC


181743Z 1818/1918 36015G20KT 5SM SHRA SCT030 OVC080
FM182000 01015G24KT 5SM SHRA OVC015
FM190100 32020G30KT P6SM OVC025
FM190700 31010KT P6SM OVC015
FM191300 32017G24KT P6SM OVC025
KZME FIR / North America



MET'MAP, your aeronautical weather chart ! - Copyright ORBIFLY December 2007 - Disclaimer

ORBIFLY MET'MAP TEAM :

Programming & Development : Alexandra Zaïnal
Concept & Development : Baudouin d'Aumeries
Co-Development & Prog : Marc-Olivier Méhu
Technical & hardware support : Manuel Goepfert

Contact : metmap@orbifly.com




SOURCES & CREDITS :

   NOAA       Earth
Advisory